createdAt,value
2019-03-28T00:00:31.821Z,99698.73
2019-03-28T00:02:39.592Z,99697.46
2019-03-28T00:04:47.311Z,99689.88
2019-03-28T00:06:55.222Z,99693.20
2019-03-28T00:09:07.687Z,99689.85
2019-03-28T00:11:15.409Z,99688.19
2019-03-28T00:13:22.984Z,99686.08
2019-03-28T00:15:31.102Z,99679.78
2019-03-28T00:17:38.791Z,99689.88
2019-03-28T00:19:46.435Z,99691.98
2019-03-28T00:21:54.128Z,99691.15
2019-03-28T00:24:03.447Z,99691.97
2019-03-28T00:26:11.250Z,99686.09
2019-03-28T00:28:18.954Z,99686.48
2019-03-28T00:30:26.701Z,99690.27
2019-03-28T00:32:34.375Z,99686.48
2019-03-28T00:34:42.145Z,99680.15
2019-03-28T00:36:49.821Z,99686.41
2019-03-28T00:38:57.590Z,99685.16
2019-03-28T00:41:06.736Z,99689.81
2019-03-28T00:43:14.411Z,99686.47
2019-03-28T00:45:22.077Z,99681.81
2019-03-28T00:47:29.794Z,99686.44
2019-03-28T00:49:37.470Z,99682.66
2019-03-28T00:51:45.156Z,99673.00
2019-03-28T00:53:53.023Z,99680.14
2019-03-28T00:56:00.777Z,99679.72
2019-03-28T00:58:09.077Z,99679.75
2019-03-28T01:00:17.879Z,99682.27
2019-03-28T01:02:25.617Z,99672.55
2019-03-28T01:04:33.293Z,99678.01
2019-03-28T01:06:40.937Z,99679.28
2019-03-28T01:08:48.701Z,99673.34
2019-03-28T01:10:56.382Z,99677.09
2019-03-28T01:13:04.170Z,99681.66
2019-03-28T01:15:12.325Z,99678.75
2019-03-28T01:17:20.076Z,99680.44
2019-03-28T01:19:27.813Z,99678.33
2019-03-28T01:21:35.490Z,99676.98
2019-03-28T01:23:43.263Z,99670.70
2019-03-28T01:25:50.940Z,99673.64
2019-03-28T01:27:58.635Z,99668.58
2019-03-28T01:30:10.161Z,99665.94
2019-03-28T01:32:17.837Z,99667.95
2019-03-28T01:34:25.515Z,99660.66
2019-03-28T01:36:33.183Z,99654.23
2019-03-28T01:38:40.961Z,99658.34
2019-03-28T01:40:48.733Z,99655.78
2019-03-28T01:42:56.405Z,99647.68
2019-03-28T01:45:06.711Z,99647.23
2019-03-28T01:47:14.579Z,99651.84
2019-03-28T01:49:22.235Z,99653.11
2019-03-28T01:51:29.943Z,99645.11
2019-03-28T01:53:38.236Z,99644.66
2019-03-28T01:55:46.253Z,99646.40
2019-03-28T01:57:54.019Z,99637.17
2019-03-28T02:00:02.622Z,99636.73
2019-03-28T02:02:10.635Z,99644.42
2019-03-28T02:04:18.382Z,99640.23
2019-03-28T02:06:26.323Z,99634.70
2019-03-28T02:08:34.202Z,99638.07
2019-03-28T02:10:41.953Z,99641.78
2019-03-28T02:12:49.758Z,99635.97
2019-03-28T02:14:57.416Z,99643.60
2019-03-28T02:17:05.191Z,99638.63
2019-03-28T02:19:12.938Z,99639.03
2019-03-28T02:21:20.684Z,99639.96
2019-03-28T02:23:28.513Z,99641.70
2019-03-28T02:25:36.186Z,99644.14
2019-03-28T02:27:43.866Z,99638.60
2019-03-28T02:29:51.786Z,99636.84
2019-03-28T02:31:59.463Z,99635.87
2019-03-28T02:34:07.134Z,99627.95
2019-03-28T02:36:14.918Z,99632.98
2019-03-28T02:38:22.680Z,99637.30
2019-03-28T02:40:30.394Z,99642.85
2019-03-28T02:42:38.297Z,99639.47
2019-03-28T02:44:46.015Z,99640.63
2019-03-28T02:46:53.692Z,99638.92
2019-03-28T02:49:01.366Z,99638.19
2019-03-28T02:51:09.062Z,99636.12
2019-03-28T02:53:16.809Z,99641.59
2019-03-28T02:55:24.519Z,99636.56
2019-03-28T02:57:40.866Z,99639.52
2019-03-28T02:59:41.635Z,99640.33
2019-03-28T03:01:51.479Z,99640.25
2019-03-28T03:03:59.315Z,99640.59
2019-03-28T03:06:07.128Z,99645.42
2019-03-28T03:08:14.870Z,99637.46
2019-03-28T03:10:22.702Z,99644.23
2019-03-28T03:12:30.563Z,99639.50
2019-03-28T03:14:38.468Z,99642.91
2019-03-28T03:16:46.282Z,99645.02
2019-03-28T03:18:54.026Z,99644.53
2019-03-28T03:21:01.802Z,99643.30
2019-03-28T03:23:09.479Z,99642.89
2019-03-28T03:25:17.302Z,99646.30
2019-03-28T03:27:25.114Z,99646.19
2019-03-28T03:29:32.786Z,99644.80
2019-03-28T03:31:40.442Z,99642.22
2019-03-28T03:33:48.121Z,99644.64
2019-03-28T03:35:55.837Z,99644.16
2019-03-28T03:38:03.512Z,99650.41
2019-03-28T03:40:13.082Z,99650.09
2019-03-28T03:42:20.833Z,99656.75
2019-03-28T03:44:28.697Z,99657.13
2019-03-28T03:46:36.392Z,99654.78
2019-03-28T03:48:44.075Z,99656.05
2019-03-28T03:50:53.006Z,99651.30
2019-03-28T03:53:00.715Z,99649.24
2019-03-28T03:55:09.006Z,99657.48
2019-03-28T03:57:16.774Z,99647.30
2019-03-28T03:59:25.569Z,99646.97
2019-03-28T04:01:33.559Z,99654.59
2019-03-28T04:03:42.100Z,99655.92
2019-03-28T04:05:50.056Z,99653.38
2019-03-28T04:07:57.793Z,99656.22
2019-03-28T04:10:07.249Z,99651.20
2019-03-28T04:12:16.762Z,99654.58
2019-03-28T04:14:24.367Z,99656.75
2019-03-28T04:16:32.142Z,99662.16
2019-03-28T04:18:40.212Z,99658.65
2019-03-28T04:20:48.060Z,99657.66
2019-03-28T04:22:55.827Z,99653.64
2019-03-28T04:25:04.126Z,99650.98
2019-03-28T04:27:11.850Z,99656.80
2019-03-28T04:29:19.692Z,99659.28
2019-03-28T04:31:28.410Z,99657.89
2019-03-28T04:33:36.132Z,99649.78
2019-03-28T04:35:43.964Z,99651.86
2019-03-28T04:37:51.727Z,99654.34
2019-03-28T04:39:59.460Z,99656.61
2019-03-28T04:42:07.365Z,99648.50
2019-03-28T04:44:15.201Z,99652.67
2019-03-28T04:46:23.105Z,99654.80
2019-03-28T04:48:30.980Z,99647.92
2019-03-28T04:50:38.894Z,99653.06
2019-03-28T04:52:46.699Z,99657.34
2019-03-28T04:54:55.353Z,99658.06
2019-03-28T04:57:04.495Z,99650.70
2019-03-28T04:59:12.402Z,99652.67
2019-03-28T05:01:20.040Z,99659.23
2019-03-28T05:03:27.971Z,99657.38
2019-03-28T05:05:36.467Z,99665.34
2019-03-28T05:07:44.202Z,99668.55
2019-03-28T05:09:51.969Z,99665.94
2019-03-28T05:11:59.872Z,99663.44
2019-03-28T05:14:07.754Z,99660.73
2019-03-28T05:16:15.519Z,99661.50
2019-03-28T05:18:23.353Z,99671.70
2019-03-28T05:20:31.159Z,99679.69
2019-03-28T05:22:39.199Z,99680.36
2019-03-28T05:24:46.999Z,99677.09
2019-03-28T05:26:54.735Z,99679.69
2019-03-28T05:29:02.492Z,99684.31
2019-03-28T05:31:10.330Z,99685.61
2019-03-28T05:33:18.147Z,99683.95
2019-03-28T05:35:26.383Z,99689.94
2019-03-28T05:37:34.350Z,99688.33
2019-03-28T05:39:42.196Z,99687.87
2019-03-28T05:41:50.169Z,99690.41
2019-03-28T05:43:57.904Z,99682.34
2019-03-28T05:46:05.634Z,99686.09
2019-03-28T05:48:13.514Z,99686.13
2019-03-28T05:50:22.498Z,99688.15
2019-03-28T05:52:30.366Z,99685.61
2019-03-28T05:54:38.129Z,99691.16
2019-03-28T05:56:46.002Z,99686.48
2019-03-28T05:58:54.248Z,99685.63
2019-03-28T06:01:02.067Z,99690.98
2019-03-28T06:03:09.814Z,99690.63
2019-03-28T06:05:17.494Z,99687.13
2019-03-28T06:07:25.516Z,99684.02
2019-03-28T06:09:33.400Z,99684.88
2019-03-28T06:11:41.082Z,99688.94
2019-03-28T06:13:48.965Z,99686.70
2019-03-28T06:15:56.728Z,99689.90
2019-03-28T06:18:04.409Z,99687.23
2019-03-28T06:20:12.927Z,99693.66
2019-03-28T06:22:20.510Z,99703.55
2019-03-28T06:24:28.191Z,99701.63
2019-03-28T06:26:35.956Z,99698.26
2019-03-28T06:28:43.708Z,99705.00
2019-03-28T06:30:51.395Z,99699.95
2019-03-28T06:32:59.153Z,99705.83
2019-03-28T06:35:08.132Z,99704.50
2019-03-28T06:37:16.111Z,99704.10
2019-03-28T06:39:23.994Z,99703.08
2019-03-28T06:41:31.756Z,99705.59
2019-03-28T06:43:41.968Z,99707.25
2019-03-28T06:45:48.851Z,99700.58
2019-03-28T06:47:56.531Z,99703.94
2019-03-28T06:50:08.381Z,99704.89
2019-03-28T06:52:15.996Z,99701.87
2019-03-28T06:54:24.374Z,99711.80
2019-03-28T06:56:32.321Z,99715.67
2019-03-28T06:58:40.093Z,99712.46
2019-03-28T07:00:47.671Z,99718.81
2019-03-28T07:02:55.354Z,99717.86
2019-03-28T07:05:03.074Z,99722.41
2019-03-28T07:07:10.817Z,99716.89
2019-03-28T07:09:19.353Z,99722.45
2019-03-28T07:11:27.200Z,99716.05
2019-03-28T07:13:35.084Z,99716.44
2019-03-28T07:15:42.728Z,99718.46
2019-03-28T07:17:50.442Z,99715.80
2019-03-28T07:19:58.251Z,99722.77
2019-03-28T07:22:05.906Z,99717.89
2019-03-28T07:24:13.732Z,99717.45
2019-03-28T07:26:21.383Z,99717.88
2019-03-28T07:28:29.134Z,99714.48
2019-03-28T07:30:36.957Z,99714.19
2019-03-28T07:32:44.765Z,99707.84
2019-03-28T07:34:52.644Z,99707.02
2019-03-28T07:37:00.421Z,99713.00
2019-03-28T07:39:08.767Z,99705.25
2019-03-28T07:41:16.715Z,99718.52
2019-03-28T07:43:25.355Z,99709.23
2019-03-28T07:45:34.579Z,99713.30
2019-03-28T07:47:42.538Z,99715.94
2019-03-28T07:49:51.408Z,99710.97
2019-03-28T07:51:59.087Z,99712.31
2019-03-28T07:54:06.897Z,99714.28
2019-03-28T07:56:14.678Z,99720.47
2019-03-28T07:58:22.458Z,99721.84
2019-03-28T08:00:30.133Z,99731.30
2019-03-28T08:02:38.305Z,99729.73
2019-03-28T08:04:45.897Z,99733.49
2019-03-28T08:06:53.466Z,99734.00
2019-03-28T08:09:01.252Z,99732.90
2019-03-28T08:11:11.586Z,99728.73
2019-03-28T08:13:19.233Z,99733.67
2019-03-28T08:15:27.075Z,99732.50
2019-03-28T08:17:35.014Z,99745.91
2019-03-28T08:19:42.587Z,99743.01
2019-03-28T08:21:50.322Z,99749.28
2019-03-28T08:23:58.076Z,99751.03
2019-03-28T08:26:05.845Z,99756.16
2019-03-28T08:28:13.633Z,99755.41
2019-03-28T08:30:26.029Z,99760.87
2019-03-28T08:32:34.656Z,99755.33
2019-03-28T08:34:44.703Z,99751.73
2019-03-28T08:36:53.923Z,99765.36
2019-03-28T08:39:01.756Z,99760.65
2019-03-28T08:41:11.112Z,99757.20
2019-03-28T08:43:18.799Z,99764.53
2019-03-28T08:45:26.575Z,99762.31
2019-03-28T08:47:34.282Z,99765.23
2019-03-28T08:49:41.958Z,99762.20
2019-03-28T08:51:49.784Z,99756.74
2019-03-28T08:53:58.552Z,99756.58
2019-03-28T08:56:06.748Z,99752.33
2019-03-28T08:58:14.416Z,99746.42
2019-03-28T09:00:33.026Z,99749.19
2019-03-28T09:02:32.598Z,99760.78
2019-03-28T09:04:40.347Z,99754.32
2019-03-28T09:06:48.154Z,99748.52
2019-03-28T09:08:56.997Z,99757.97
2019-03-28T09:11:05.116Z,99756.90
2019-03-28T09:13:13.693Z,99753.08
2019-03-28T09:15:21.583Z,99760.33
2019-03-28T09:17:29.367Z,99754.52
2019-03-28T09:19:38.999Z,99755.23
2019-03-28T09:21:46.546Z,99758.12
2019-03-28T09:23:54.257Z,99765.44
2019-03-28T09:26:04.390Z,99769.02
2019-03-28T09:28:11.207Z,99774.33
2019-03-28T09:30:29.309Z,99766.75
2019-03-28T09:32:37.576Z,99770.89
2019-03-28T09:34:45.258Z,99768.09
2019-03-28T09:36:54.186Z,99769.97
2019-03-28T09:39:01.890Z,99768.20
2019-03-28T09:41:11.079Z,99769.62
2019-03-28T09:43:18.750Z,99770.28
2019-03-28T09:45:26.873Z,99776.55
2019-03-28T09:47:34.719Z,99770.95
2019-03-28T09:49:42.370Z,99780.42
2019-03-28T09:51:49.972Z,99776.17
2019-03-28T09:53:57.774Z,99777.67
2019-03-28T09:56:05.303Z,99782.36
2019-03-28T09:58:13.092Z,99781.62
2019-03-28T10:00:21.691Z,99791.12
2019-03-28T10:02:29.416Z,99786.48
2019-03-28T10:04:38.164Z,99790.35
2019-03-28T10:06:45.912Z,99801.67
2019-03-28T10:08:53.630Z,99788.61
2019-03-28T10:11:01.410Z,99783.65
2019-03-28T10:13:09.187Z,99790.53
2019-03-28T10:15:18.404Z,99788.95
2019-03-28T10:17:26.012Z,99784.21
2019-03-28T10:19:33.767Z,99787.23
2019-03-28T10:21:41.587Z,99788.84
2019-03-28T10:23:49.467Z,99789.89
2019-03-28T10:25:57.228Z,99790.28
2019-03-28T10:28:05.084Z,99792.63
2019-03-28T10:30:15.209Z,99789.03
2019-03-28T10:32:22.892Z,99797.90
2019-03-28T10:34:31.670Z,99798.42
2019-03-28T10:36:39.512Z,99797.97
2019-03-28T10:38:47.239Z,99806.70
2019-03-28T10:40:54.980Z,99809.75
2019-03-28T10:43:04.368Z,99815.89
2019-03-28T10:45:12.202Z,99813.65
2019-03-28T10:47:19.971Z,99806.16
2019-03-28T10:49:28.744Z,99808.19
2019-03-28T10:51:37.481Z,99816.19
2019-03-28T10:53:45.161Z,99823.23
2019-03-28T10:55:52.878Z,99823.69
2019-03-28T10:58:00.541Z,99825.31
2019-03-28T11:00:23.179Z,99817.81
2019-03-28T11:02:19.487Z,99816.77
2019-03-28T11:04:27.157Z,99821.47
2019-03-28T11:06:34.938Z,99816.95
2019-03-28T11:08:42.796Z,99823.34
2019-03-28T11:10:50.741Z,99826.01
2019-03-28T11:12:58.588Z,99831.41
2019-03-28T11:15:07.705Z,99824.19
2019-03-28T11:17:15.858Z,99827.68
2019-03-28T11:19:23.529Z,99826.19
2019-03-28T11:21:34.224Z,99823.49
2019-03-28T11:23:41.656Z,99823.43
2019-03-28T11:25:50.728Z,99820.16
2019-03-28T11:27:58.502Z,99825.72
2019-03-28T11:30:10.071Z,99829.31
2019-03-28T11:32:18.684Z,99823.16
2019-03-28T11:34:26.703Z,99817.99
2019-03-28T11:36:34.345Z,99814.69
2019-03-28T11:38:42.057Z,99819.17
2019-03-28T11:40:49.770Z,99822.41
2019-03-28T11:42:57.607Z,99823.47
2019-03-28T11:45:09.937Z,99821.67
2019-03-28T11:47:17.806Z,99820.52
2019-03-28T11:49:25.515Z,99814.06
2019-03-28T11:51:36.089Z,99816.33
2019-03-28T11:53:42.694Z,99824.30
2019-03-28T11:55:50.378Z,99824.63
2019-03-28T11:57:58.156Z,99811.67
2019-03-28T12:00:15.628Z,99817.77
2019-03-28T12:02:25.309Z,99813.52
2019-03-28T12:04:34.131Z,99818.41
2019-03-28T12:06:41.831Z,99819.98
2019-03-28T12:08:49.673Z,99815.95
2019-03-28T12:10:57.345Z,99824.55
2019-03-28T12:13:05.215Z,99816.63
2019-03-28T12:15:14.184Z,99807.65
2019-03-28T12:17:22.765Z,99816.37
2019-03-28T12:19:30.454Z,99813.61
2019-03-28T12:21:38.314Z,99805.98
2019-03-28T12:23:45.957Z,99806.88
2019-03-28T12:25:53.936Z,99807.73
2019-03-28T12:28:01.867Z,99806.80
2019-03-28T12:30:15.933Z,99812.94
2019-03-28T12:32:23.383Z,99807.89
2019-03-28T12:34:31.070Z,99802.82
2019-03-28T12:36:38.908Z,99802.82
2019-03-28T12:38:46.736Z,99801.92
2019-03-28T12:40:54.419Z,99799.84
2019-03-28T12:43:02.103Z,99792.75
2019-03-28T12:45:11.818Z,99795.30
2019-03-28T12:47:20.610Z,99795.30
2019-03-28T12:49:28.302Z,99789.56
2019-03-28T12:51:36.022Z,99781.39
2019-03-28T12:53:43.804Z,99780.57
2019-03-28T12:55:51.495Z,99781.23
2019-03-28T12:57:59.273Z,99777.98
2019-03-28T13:00:10.035Z,99777.05
2019-03-28T13:02:28.642Z,99779.77
2019-03-28T13:04:27.367Z,99783.24
2019-03-28T13:06:35.321Z,99785.58
2019-03-28T13:08:43.769Z,99785.16
2019-03-28T13:10:51.513Z,99783.02
2019-03-28T13:12:59.252Z,99781.25
2019-03-28T13:15:08.753Z,99780.18
2019-03-28T13:17:16.760Z,99776.66
2019-03-28T13:19:24.909Z,99773.80
2019-03-28T13:21:32.549Z,99773.82
2019-03-28T13:23:40.354Z,99778.11
2019-03-28T13:25:48.109Z,99784.70
2019-03-28T13:27:55.809Z,99775.66
2019-03-28T13:30:04.105Z,99778.79
2019-03-28T13:32:11.935Z,99782.88
2019-03-28T13:34:19.840Z,99788.59
2019-03-28T13:36:27.639Z,99779.81
2019-03-28T13:38:35.614Z,99775.88
2019-03-28T13:40:43.362Z,99771.07
2019-03-28T13:42:52.972Z,99778.99
2019-03-28T13:45:00.576Z,99784.80
2019-03-28T13:47:08.266Z,99780.77
2019-03-28T13:49:15.887Z,99782.44
2019-03-28T13:51:23.573Z,99785.14
2019-03-28T13:53:39.382Z,99780.31
2019-03-28T13:55:40.824Z,99781.95
2019-03-28T13:57:48.569Z,99779.87
2019-03-28T13:59:56.428Z,99785.67
2019-03-28T14:02:06.736Z,99784.02
2019-03-28T14:04:14.617Z,99786.09
2019-03-28T14:06:22.485Z,99782.73
2019-03-28T14:08:30.361Z,99785.34
2019-03-28T14:10:38.069Z,99790.22
2019-03-28T14:12:45.839Z,99796.23
2019-03-28T14:14:53.625Z,99794.21
2019-03-28T14:17:01.476Z,99799.61
2019-03-28T14:19:09.264Z,99800.17
2019-03-28T14:21:18.057Z,99798.42
2019-03-28T14:23:25.820Z,99799.05
2019-03-28T14:25:33.599Z,99792.55
2019-03-28T14:27:41.455Z,99795.69
2019-03-28T14:29:49.241Z,99793.42
2019-03-28T14:31:59.807Z,99791.50
2019-03-28T14:34:06.413Z,99790.58
2019-03-28T14:36:14.092Z,99788.91
2019-03-28T14:38:21.841Z,99784.78
2019-03-28T14:40:29.697Z,99789.57
2019-03-28T14:42:37.457Z,99789.53
2019-03-28T14:44:45.137Z,99795.20
2019-03-28T14:46:52.754Z,99799.11
2019-03-28T14:49:00.580Z,99796.34
2019-03-28T14:51:08.255Z,99802.70
2019-03-28T14:53:17.156Z,99800.62
2019-03-28T14:55:25.376Z,99804.69
2019-03-28T14:57:34.085Z,99808.04
2019-03-28T14:59:43.925Z,99807.47
2019-03-28T15:01:51.603Z,99809.16
2019-03-28T15:03:59.358Z,99809.48
2019-03-28T15:06:07.088Z,99808.83
2019-03-28T15:08:14.981Z,99817.78
2019-03-28T15:10:22.580Z,99814.47
2019-03-28T15:12:30.375Z,99812.84
2019-03-28T15:14:38.073Z,99813.72
2019-03-28T15:16:45.938Z,99817.72
2019-03-28T15:18:53.764Z,99812.53
2019-03-28T15:21:01.588Z,99814.47
2019-03-28T15:23:09.929Z,99829.40
2019-03-28T15:25:17.550Z,99824.95
2019-03-28T15:27:25.244Z,99828.50
2019-03-28T15:29:33.999Z,99837.31
2019-03-28T15:31:41.785Z,99840.67
2019-03-28T15:33:49.481Z,99832.06
2019-03-28T15:35:57.141Z,99835.17
2019-03-28T15:38:06.201Z,99834.22
2019-03-28T15:40:14.319Z,99830.27
2019-03-28T15:42:22.238Z,99836.13
2019-03-28T15:44:29.950Z,99840.30
2019-03-28T15:46:37.635Z,99838.33
2019-03-28T15:48:45.376Z,99844.28
2019-03-28T15:50:53.238Z,99845.15
2019-03-28T15:53:00.912Z,99841.81
2019-03-28T15:55:09.936Z,99846.94
2019-03-28T15:57:18.991Z,99844.14
2019-03-28T15:59:26.646Z,99845.56
2019-03-28T16:01:34.521Z,99849.73
2019-03-28T16:03:52.278Z,99843.73
2019-03-28T16:05:58.265Z,99855.69
2019-03-28T16:08:01.423Z,99857.62
2019-03-28T16:10:14.723Z,99849.94
2019-03-28T16:12:21.599Z,99855.02
2019-03-28T16:14:29.357Z,99854.33
2019-03-28T16:16:37.156Z,99858.32
2019-03-28T16:18:44.850Z,99864.90
2019-03-28T16:20:53.513Z,99867.22
2019-03-28T16:23:01.329Z,99859.31
2019-03-28T16:25:09.549Z,99857.39
2019-03-28T16:27:17.208Z,99863.16
2019-03-28T16:29:24.998Z,99869.25
2019-03-28T16:31:32.688Z,99863.22
2019-03-28T16:33:40.377Z,99862.59
2019-03-28T16:35:48.098Z,99856.14
2019-03-28T16:37:55.687Z,99861.83
2019-03-28T16:40:04.126Z,99855.38
2019-03-28T16:42:12.073Z,99862.59
2019-03-28T16:44:19.761Z,99867.38
2019-03-28T16:46:28.513Z,99870.64
2019-03-28T16:48:36.403Z,99876.47
2019-03-28T16:50:44.165Z,99875.19
2019-03-28T16:52:51.857Z,99884.61
2019-03-28T16:54:59.740Z,99885.64
2019-03-28T16:57:07.536Z,99883.52
2019-03-28T16:59:15.321Z,99888.02
2019-03-28T17:01:23.013Z,99889.42
2019-03-28T17:03:30.884Z,99893.91
2019-03-28T17:05:39.911Z,99894.95
2019-03-28T17:07:48.161Z,99897.42
2019-03-28T17:09:56.751Z,99896.53
2019-03-28T17:12:04.541Z,99897.34
2019-03-28T17:14:12.377Z,99901.03
2019-03-28T17:16:20.197Z,99904.47
2019-03-28T17:18:27.918Z,99909.54
2019-03-28T17:20:35.897Z,99915.30
2019-03-28T17:22:43.552Z,99906.83
2019-03-28T17:24:51.314Z,99911.47
2019-03-28T17:27:00.213Z,99913.44
2019-03-28T17:29:09.015Z,99917.17
2019-03-28T17:31:16.677Z,99918.28
2019-03-28T17:33:24.671Z,99918.66
2019-03-28T17:35:32.393Z,99929.34
2019-03-28T17:37:40.260Z,99932.09
2019-03-28T17:39:48.186Z,99931.05
2019-03-28T17:41:57.652Z,99929.89
2019-03-28T17:44:06.593Z,99928.27
2019-03-28T17:46:16.482Z,99933.09
2019-03-28T17:48:24.207Z,99935.29
2019-03-28T17:50:31.899Z,99936.75
2019-03-28T17:52:39.631Z,99938.98
2019-03-28T17:54:47.257Z,99941.11
2019-03-28T17:56:56.120Z,99939.13
2019-03-28T17:59:03.724Z,99937.95
2019-03-28T18:01:11.715Z,99945.19
2019-03-28T18:03:30.492Z,99947.02
2019-03-28T18:05:29.034Z,99956.05
2019-03-28T18:07:36.716Z,99952.00
2019-03-28T18:09:44.460Z,99955.53
2019-03-28T18:11:52.231Z,99964.95
2019-03-28T18:14:00.216Z,99967.13
2019-03-28T18:16:08.035Z,99968.96
2019-03-28T18:18:15.864Z,99975.85
2019-03-28T18:20:23.617Z,99978.70
2019-03-28T18:22:31.264Z,99985.67
2019-03-28T18:24:38.981Z,99988.30
2019-03-28T18:26:46.733Z,99994.89
2019-03-28T18:28:55.553Z,99987.67
2019-03-28T18:31:03.246Z,99996.19
2019-03-28T18:33:11.291Z,99993.67
2019-03-28T18:35:19.131Z,99992.02
2019-03-28T18:37:26.930Z,99997.14
2019-03-28T18:39:34.627Z,99999.27
2019-03-28T18:41:42.395Z,100000.54
2019-03-28T18:43:50.347Z,99994.54
2019-03-28T18:45:58.200Z,99996.75
2019-03-28T18:48:08.887Z,99997.48
2019-03-28T18:50:17.097Z,99997.91
2019-03-28T18:52:24.782Z,99994.59
2019-03-28T18:54:32.465Z,100001.83
2019-03-28T18:56:40.315Z,100000.55
2019-03-28T18:58:48.168Z,100005.28
2019-03-28T19:00:56.009Z,100008.09
2019-03-28T19:03:03.747Z,100007.99
2019-03-28T19:05:19.524Z,100009.47
2019-03-28T19:07:21.358Z,100010.34
2019-03-28T19:09:29.146Z,100008.70
2019-03-28T19:11:36.870Z,100002.92
2019-03-28T19:13:44.690Z,100003.03
2019-03-28T19:15:52.490Z,99998.89
2019-03-28T19:18:00.221Z,100002.38
2019-03-28T19:20:09.872Z,100002.88
2019-03-28T19:22:17.702Z,99997.49
2019-03-28T19:24:25.775Z,99998.91
2019-03-28T19:26:33.465Z,100008.38
2019-03-28T19:28:41.803Z,100003.36
2019-03-28T19:30:49.525Z,100000.91
2019-03-28T19:32:57.307Z,100003.94
2019-03-28T19:35:08.233Z,100002.34
2019-03-28T19:37:17.164Z,100002.00
2019-03-28T19:39:30.938Z,100007.62
2019-03-28T19:41:38.659Z,100014.90
2019-03-28T19:43:46.901Z,100012.91
2019-03-28T19:45:54.600Z,100011.30
2019-03-28T19:48:02.566Z,100016.41
2019-03-28T19:50:13.505Z,100020.70
2019-03-28T19:52:21.198Z,100016.53
2019-03-28T19:54:29.854Z,100028.18
2019-03-28T19:56:37.455Z,100038.72
2019-03-28T19:58:45.153Z,100037.89
2019-03-28T20:00:53.041Z,100048.43
2019-03-28T20:03:02.274Z,100048.47
2019-03-28T20:05:10.689Z,100051.86
2019-03-28T20:07:21.806Z,100053.59
2019-03-28T20:09:27.998Z,100052.31
2019-03-28T20:11:36.777Z,100049.84
2019-03-28T20:13:44.779Z,100043.10
2019-03-28T20:15:52.661Z,100047.78
2019-03-28T20:18:00.431Z,100049.16
2019-03-28T20:20:09.887Z,100047.05
2019-03-28T20:22:17.636Z,100056.00
2019-03-28T20:24:25.239Z,100053.11
2019-03-28T20:26:33.040Z,100057.80
2019-03-28T20:28:40.740Z,100054.03
2019-03-28T20:30:48.508Z,100057.05
2019-03-28T20:32:57.094Z,100057.45
2019-03-28T20:35:05.769Z,100059.99
2019-03-28T20:37:14.725Z,100055.41
2019-03-28T20:39:22.817Z,100059.20
2019-03-28T20:41:30.513Z,100068.11
2019-03-28T20:43:38.223Z,100074.45
2019-03-28T20:45:46.166Z,100081.23
2019-03-28T20:47:54.002Z,100077.86
2019-03-28T20:50:02.970Z,100074.51
2019-03-28T20:52:10.765Z,100085.51
2019-03-28T20:54:19.412Z,100080.01
2019-03-28T20:56:27.185Z,100088.03
2019-03-28T20:58:34.926Z,100082.57
2019-03-28T21:00:45.635Z,100088.06
2019-03-28T21:02:53.582Z,100083.01
2019-03-28T21:05:01.415Z,100084.26
2019-03-28T21:07:09.157Z,100086.39
2019-03-28T21:09:16.934Z,100085.14
2019-03-28T21:11:25.732Z,100084.71
2019-03-28T21:13:33.626Z,100088.95
2019-03-28T21:15:41.394Z,100086.43
2019-03-28T21:17:49.243Z,100091.48
2019-03-28T21:19:57.045Z,100090.64
2019-03-28T21:22:05.959Z,100082.62
2019-03-28T21:24:13.929Z,100080.13
2019-03-28T21:26:21.768Z,100085.61
2019-03-28T21:28:29.597Z,100090.25
2019-03-28T21:30:47.189Z,100085.19
2019-03-28T21:32:55.143Z,100093.64
2019-03-28T21:34:59.391Z,100102.49
2019-03-28T21:37:07.140Z,100106.70
2019-03-28T21:39:14.984Z,100103.74
2019-03-28T21:41:22.592Z,100104.16
2019-03-28T21:43:30.932Z,100107.95
2019-03-28T21:45:39.059Z,100106.70
2019-03-28T21:47:46.928Z,100108.37
2019-03-28T21:49:54.665Z,100115.53
2019-03-28T21:52:02.534Z,100117.65
2019-03-28T21:54:10.291Z,100110.03
2019-03-28T21:56:18.029Z,100113.83
2019-03-28T21:58:25.924Z,100112.56
2019-03-28T22:00:33.673Z,100112.97
2019-03-28T22:02:41.572Z,100107.50
2019-03-28T22:04:49.342Z,100097.80
2019-03-28T22:06:57.448Z,100103.27
2019-03-28T22:09:07.378Z,100102.00
2019-03-28T22:11:16.850Z,100099.44
2019-03-28T22:13:24.837Z,100106.62
2019-03-28T22:15:33.717Z,100104.86
2019-03-28T22:17:42.093Z,100106.53
2019-03-28T22:19:51.658Z,100105.68
2019-03-28T22:21:59.773Z,100100.17
2019-03-28T22:24:07.627Z,100095.97
2019-03-28T22:26:15.457Z,100102.29
2019-03-28T22:28:23.198Z,100106.53
2019-03-28T22:30:31.028Z,100109.06
2019-03-28T22:32:39.102Z,100105.67
2019-03-28T22:34:46.852Z,100106.48
2019-03-28T22:36:57.463Z,100107.34
2019-03-28T22:39:07.217Z,100112.80
2019-03-28T22:41:15.116Z,100117.46
2019-03-28T22:43:22.716Z,100120.44
2019-03-28T22:45:30.548Z,100117.88
2019-03-28T22:47:38.428Z,100118.73
2019-03-28T22:49:46.238Z,100116.64
2019-03-28T22:51:54.150Z,100109.52
2019-03-28T22:54:02.333Z,100111.64
2019-03-28T22:56:10.261Z,100112.05
2019-03-28T22:58:17.841Z,100111.23
2019-03-28T23:00:41.037Z,100109.11
2019-03-28T23:02:50.592Z,100103.64
2019-03-28T23:04:58.364Z,100105.31
2019-03-28T23:07:11.132Z,100106.98
2019-03-28T23:09:15.790Z,100103.19
2019-03-28T23:11:23.929Z,100098.14
2019-03-28T23:13:31.790Z,100098.99
2019-03-28T23:15:39.790Z,100102.78
2019-03-28T23:17:47.559Z,100102.34
2019-03-28T23:19:55.399Z,100098.55
2019-03-28T23:22:03.164Z,100102.78
2019-03-28T23:24:10.930Z,100098.55
2019-03-28T23:26:19.059Z,100096.42
2019-03-28T23:28:26.851Z,100102.75
2019-03-28T23:30:34.768Z,100105.69
2019-03-28T23:32:43.045Z,100108.20
2019-03-28T23:34:51.028Z,100104.81
2019-03-28T23:36:59.751Z,100108.10
2019-03-28T23:39:08.650Z,100104.63
2019-03-28T23:41:16.404Z,100101.26
2019-03-28T23:43:24.107Z,100105.44
2019-03-28T23:45:31.919Z,100108.69
2019-03-28T23:47:41.253Z,100106.14
2019-03-28T23:49:48.845Z,100107.42
2019-03-28T23:51:56.760Z,100112.14
2019-03-28T23:54:04.525Z,100103.32
2019-03-28T23:56:12.289Z,100110.09
2019-03-28T23:58:20.936Z,100105.89
